sensor_id;sensor_type;location;lat;lon;timestamp;temperature;humidity
21318;DHT22;10818;50.830;6.524;2024-03-02T00:04:03;9.40;99.90
21318;DHT22;10818;50.830;6.524;2024-03-02T00:09:04;9.30;99.90
21318;DHT22;10818;50.830;6.524;2024-03-02T00:14:04;9.50;99.90
21318;DHT22;10818;50.830;6.524;2024-03-02T00:19:05;9.50;99.90
21318;DHT22;10818;50.830;6.524;2024-03-02T00:24:17;9.40;99.90
21318;DHT22;10818;50.830;6.524;2024-03-02T00:29:19;9.50;99.90
21318;DHT22;10818;50.830;6.524;2024-03-02T00:34:21;9.60;99.90
21318;DHT22;10818;50.830;6.524;2024-03-02T00:39:22;9.60;99.90
21318;DHT22;10818;50.830;6.524;2024-03-02T00:44:23;9.50;99.90
21318;DHT22;10818;50.830;6.524;2024-03-02T00:49:25;9.40;99.90
21318;DHT22;10818;50.830;6.524;2024-03-02T00:54:26;9.50;99.90
21318;DHT22;10818;50.830;6.524;2024-03-02T00:59:29;9.40;99.90
21318;DHT22;10818;50.830;6.524;2024-03-02T01:04:32;9.50;99.90
21318;DHT22;10818;50.830;6.524;2024-03-02T01:09:32;9.40;99.90
21318;DHT22;10818;50.830;6.524;2024-03-02T01:14:32;9.40;99.90
21318;DHT22;10818;50.830;6.524;2024-03-02T01:19:33;9.50;99.90
21318;DHT22;10818;50.830;6.524;2024-03-02T01:24:34;9.60;99.90
21318;DHT22;10818;50.830;6.524;2024-03-02T01:29:34;9.60;99.90
21318;DHT22;10818;50.830;6.524;2024-03-02T01:34:34;9.60;99.90
21318;DHT22;10818;50.830;6.524;2024-03-02T01:39:35;9.80;99.90
21318;DHT22;10818;50.830;6.524;2024-03-02T01:44:35;9.80;99.90
21318;DHT22;10818;50.830;6.524;2024-03-02T01:49:36;9.70;99.90
21318;DHT22;10818;50.830;6.524;2024-03-02T01:54:39;9.80;99.90
21318;DHT22;10818;50.830;6.524;2024-03-02T01:59:39;9.70;99.90
21318;DHT22;10818;50.830;6.524;2024-03-02T02:04:39;10.00;99.90
21318;DHT22;10818;50.830;6.524;2024-03-02T02:09:43;9.90;99.90
21318;DHT22;10818;50.830;6.524;2024-03-02T02:14:47;10.00;99.90
21318;DHT22;10818;50.830;6.524;2024-03-02T02:19:47;10.10;99.90
21318;DHT22;10818;50.830;6.524;2024-03-02T02:24:48;10.10;99.90
21318;DHT22;10818;50.830;6.524;2024-03-02T02:29:48;10.10;99.90
21318;DHT22;10818;50.830;6.524;2024-03-02T02:34:52;10.30;99.90
21318;DHT22;10818;50.830;6.524;2024-03-02T02:39:52;10.40;99.90
21318;DHT22;10818;50.830;6.524;2024-03-02T02:44:53;10.30;99.90
21318;DHT22;10818;50.830;6.524;2024-03-02T02:49:53;10.20;99.90
21318;DHT22;10818;50.830;6.524;2024-03-02T02:54:54;10.30;99.90
21318;DHT22;10818;50.830;6.524;2024-03-02T02:59:54;10.40;99.90
21318;DHT22;10818;50.830;6.524;2024-03-02T03:04:54;10.50;99.90
21318;DHT22;10818;50.830;6.524;2024-03-02T03:09:57;10.40;99.90
21318;DHT22;10818;50.830;6.524;2024-03-02T03:14:58;10.50;99.90
21318;DHT22;10818;50.830;6.524;2024-03-02T03:19:58;10.30;99.90
21318;DHT22;10818;50.830;6.524;2024-03-02T03:24:58;10.30;99.90
21318;DHT22;10818;50.830;6.524;2024-03-02T03:29:59;10.10;99.90
21318;DHT22;10818;50.830;6.524;2024-03-02T03:35:00;10.30;99.90
21318;DHT22;10818;50.830;6.524;2024-03-02T03:40:01;10.10;99.90
21318;DHT22;10818;50.830;6.524;2024-03-02T03:45:02;10.30;99.90
21318;DHT22;10818;50.830;6.524;2024-03-02T03:50:03;10.20;99.90
21318;DHT22;10818;50.830;6.524;2024-03-02T03:55:07;10.10;99.90
21318;DHT22;10818;50.830;6.524;2024-03-02T04:00:08;10.00;99.90
21318;DHT22;10818;50.830;6.524;2024-03-02T04:05:10;10.00;99.90
21318;DHT22;10818;50.830;6.524;2024-03-02T04:10:10;9.90;99.90
21318;DHT22;10818;50.830;6.524;2024-03-02T04:15:12;9.70;99.90
21318;DHT22;10818;50.830;6.524;2024-03-02T04:20:13;9.70;99.90
21318;DHT22;10818;50.830;6.524;2024-03-02T04:25:13;9.50;99.90
21318;DHT22;10818;50.830;6.524;2024-03-02T04:30:14;9.40;99.90
21318;DHT22;10818;50.830;6.524;2024-03-02T04:35:14;9.40;99.90
21318;DHT22;10818;50.830;6.524;2024-03-02T04:40:15;9.30;99.90
21318;DHT22;10818;50.830;6.524;2024-03-02T04:45:15;9.30;99.90
21318;DHT22;10818;50.830;6.524;2024-03-02T04:50:16;9.20;99.90
21318;DHT22;10818;50.830;6.524;2024-03-02T04:55:16;9.30;99.90
21318;DHT22;10818;50.830;6.524;2024-03-02T05:00:16;9.30;99.90
21318;DHT22;10818;50.830;6.524;2024-03-02T05:05:17;9.10;99.90
21318;DHT22;10818;50.830;6.524;2024-03-02T05:10:17;9.10;99.90
21318;DHT22;10818;50.830;6.524;2024-03-02T05:15:18;9.00;99.90
21318;DHT22;10818;50.830;6.524;2024-03-02T05:20:18;8.80;99.90
21318;DHT22;10818;50.830;6.524;2024-03-02T05:25:19;8.80;99.90
21318;DHT22;10818;50.830;6.524;2024-03-02T05:30:19;8.90;99.90
21318;DHT22;10818;50.830;6.524;2024-03-02T05:35:20;8.80;99.90
21318;DHT22;10818;50.830;6.524;2024-03-02T05:40:20;8.80;99.90
21318;DHT22;10818;50.830;6.524;2024-03-02T05:45:21;8.80;99.90
21318;DHT22;10818;50.830;6.524;2024-03-02T05:50:21;8.80;99.90
21318;DHT22;10818;50.830;6.524;2024-03-02T05:55:22;8.60;99.90
21318;DHT22;10818;50.830;6.524;2024-03-02T06:00:22;8.80;99.90
21318;DHT22;10818;50.830;6.524;2024-03-02T06:05:23;8.60;99.90
21318;DHT22;10818;50.830;6.524;2024-03-02T06:10:23;8.50;99.90
21318;DHT22;10818;50.830;6.524;2024-03-02T06:15:24;8.40;99.90
21318;DHT22;10818;50.830;6.524;2024-03-02T06:20:25;8.40;99.90
21318;DHT22;10818;50.830;6.524;2024-03-02T06:25:27;8.50;99.90
21318;DHT22;10818;50.830;6.524;2024-03-02T06:30:27;8.50;99.90
21318;DHT22;10818;50.830;6.524;2024-03-02T06:35:27;8.40;99.90
21318;DHT22;10818;50.830;6.524;2024-03-02T06:40:28;8.40;99.90
21318;DHT22;10818;50.830;6.524;2024-03-02T06:45:28;8.60;99.90
21318;DHT22;10818;50.830;6.524;2024-03-02T06:50:30;8.80;99.90
21318;DHT22;10818;50.830;6.524;2024-03-02T06:55:31;8.90;99.90
21318;DHT22;10818;50.830;6.524;2024-03-02T07:00:31;9.00;99.90
21318;DHT22;10818;50.830;6.524;2024-03-02T07:05:32;9.30;99.90
21318;DHT22;10818;50.830;6.524;2024-03-02T07:10:32;9.20;99.90
21318;DHT22;10818;50.830;6.524;2024-03-02T07:15:32;9.40;99.90
21318;DHT22;10818;50.830;6.524;2024-03-02T07:20:54;9.60;99.90
21318;DHT22;10818;50.830;6.524;2024-03-02T07:25:58;9.60;99.90
21318;DHT22;10818;50.830;6.524;2024-03-02T07:31:03;9.70;99.90
21318;DHT22;10818;50.830;6.524;2024-03-02T07:36:04;9.70;99.90
21318;DHT22;10818;50.830;6.524;2024-03-02T07:41:05;9.70;99.90
21318;DHT22;10818;50.830;6.524;2024-03-02T07:46:05;9.60;99.90
21318;DHT22;10818;50.830;6.524;2024-03-02T07:51:06;9.60;99.90
21318;DHT22;10818;50.830;6.524;2024-03-02T07:56:06;9.80;99.90
21318;DHT22;10818;50.830;6.524;2024-03-02T08:01:07;9.70;99.90
21318;DHT22;10818;50.830;6.524;2024-03-02T08:06:07;9.70;99.90
21318;DHT22;10818;50.830;6.524;2024-03-02T08:11:08;9.90;99.90
21318;DHT22;10818;50.830;6.524;2024-03-02T08:16:08;10.00;99.90
21318;DHT22;10818;50.830;6.524;2024-03-02T08:21:09;10.20;99.90
21318;DHT22;10818;50.830;6.524;2024-03-02T08:26:10;10.70;99.90
21318;DHT22;10818;50.830;6.524;2024-03-02T08:31:11;10.70;99.90
21318;DHT22;10818;50.830;6.524;2024-03-02T08:36:12;10.70;99.90
21318;DHT22;10818;50.830;6.524;2024-03-02T08:41:12;11.00;99.90
21318;DHT22;10818;50.830;6.524;2024-03-02T08:46:15;11.00;99.90
21318;DHT22;10818;50.830;6.524;2024-03-02T08:51:16;10.80;99.90
21318;DHT22;10818;50.830;6.524;2024-03-02T08:56:16;11.20;99.90
21318;DHT22;10818;50.830;6.524;2024-03-02T09:01:17;11.30;99.90
21318;DHT22;10818;50.830;6.524;2024-03-02T09:06:18;11.60;99.90
21318;DHT22;10818;50.830;6.524;2024-03-02T09:11:20;11.70;99.90
21318;DHT22;10818;50.830;6.524;2024-03-02T09:16:21;12.00;99.90
21318;DHT22;10818;50.830;6.524;2024-03-02T09:21:21;12.00;99.90
21318;DHT22;10818;50.830;6.524;2024-03-02T09:26:22;12.10;99.90
21318;DHT22;10818;50.830;6.524;2024-03-02T09:31:25;12.30;99.90
21318;DHT22;10818;50.830;6.524;2024-03-02T09:36:25;12.90;99.90
21318;DHT22;10818;50.830;6.524;2024-03-02T09:41:25;12.80;99.90
21318;DHT22;10818;50.830;6.524;2024-03-02T09:46:26;12.40;99.90
21318;DHT22;10818;50.830;6.524;2024-03-02T09:51:27;12.50;99.90
21318;DHT22;10818;50.830;6.524;2024-03-02T09:56:27;12.70;99.90
21318;DHT22;10818;50.830;6.524;2024-03-02T10:01:28;12.60;99.90
21318;DHT22;10818;50.830;6.524;2024-03-02T10:06:28;13.00;99.90
21318;DHT22;10818;50.830;6.524;2024-03-02T10:11:29;13.50;99.90
21318;DHT22;10818;50.830;6.524;2024-03-02T10:16:31;13.70;99.90
21318;DHT22;10818;50.830;6.524;2024-03-02T10:21:31;14.00;99.90
21318;DHT22;10818;50.830;6.524;2024-03-02T10:26:32;13.80;99.90
21318;DHT22;10818;50.830;6.524;2024-03-02T10:31:32;13.90;99.90
21318;DHT22;10818;50.830;6.524;2024-03-02T10:36:33;14.10;99.90
21318;DHT22;10818;50.830;6.524;2024-03-02T10:41:35;14.40;99.90
21318;DHT22;10818;50.830;6.524;2024-03-02T10:46:37;14.70;99.90
21318;DHT22;10818;50.830;6.524;2024-03-02T10:51:37;14.90;99.90
21318;DHT22;10818;50.830;6.524;2024-03-02T10:56:42;15.10;99.90
21318;DHT22;10818;50.830;6.524;2024-03-02T11:01:44;15.20;99.90
21318;DHT22;10818;50.830;6.524;2024-03-02T11:06:49;15.00;99.90
21318;DHT22;10818;50.830;6.524;2024-03-02T11:11:54;15.10;99.90
21318;DHT22;10818;50.830;6.524;2024-03-02T11:16:56;15.00;99.90
21318;DHT22;10818;50.830;6.524;2024-03-02T11:21:57;14.80;99.90
21318;DHT22;10818;50.830;6.524;2024-03-02T11:26:58;14.80;99.90
21318;DHT22;10818;50.830;6.524;2024-03-02T11:31:58;14.90;99.90
21318;DHT22;10818;50.830;6.524;2024-03-02T11:37:02;14.90;99.90
21318;DHT22;10818;50.830;6.524;2024-03-02T11:42:03;14.70;99.90
21318;DHT22;10818;50.830;6.524;2024-03-02T11:47:06;14.90;99.90
21318;DHT22;10818;50.830;6.524;2024-03-02T11:52:11;15.20;99.90
21318;DHT22;10818;50.830;6.524;2024-03-02T11:57:12;15.20;99.90
21318;DHT22;10818;50.830;6.524;2024-03-02T12:02:16;15.60;99.90
21318;DHT22;10818;50.830;6.524;2024-03-02T12:07:20;15.60;99.90
21318;DHT22;10818;50.830;6.524;2024-03-02T12:12:24;16.00;99.90
21318;DHT22;10818;50.830;6.524;2024-03-02T12:17:24;16.00;99.90
21318;DHT22;10818;50.830;6.524;2024-03-02T12:22:24;16.00;99.90
21318;DHT22;10818;50.830;6.524;2024-03-02T12:27:25;16.00;99.90
21318;DHT22;10818;50.830;6.524;2024-03-02T12:32:25;16.10;99.90
21318;DHT22;10818;50.830;6.524;2024-03-02T12:37:27;16.20;99.90
21318;DHT22;10818;50.830;6.524;2024-03-02T12:42:28;15.70;99.90
21318;DHT22;10818;50.830;6.524;2024-03-02T12:47:29;15.80;99.90
21318;DHT22;10818;50.830;6.524;2024-03-02T12:52:29;15.90;99.90
21318;DHT22;10818;50.830;6.524;2024-03-02T12:57:33;16.40;99.90
21318;DHT22;10818;50.830;6.524;2024-03-02T13:02:34;16.50;99.90
21318;DHT22;10818;50.830;6.524;2024-03-02T13:07:35;16.10;99.90
21318;DHT22;10818;50.830;6.524;2024-03-02T13:12:36;16.30;99.90
21318;DHT22;10818;50.830;6.524;2024-03-02T13:17:36;16.30;99.90
21318;DHT22;10818;50.830;6.524;2024-03-02T13:22:37;16.40;99.90
21318;DHT22;10818;50.830;6.524;2024-03-02T13:27:37;16.60;99.90
21318;DHT22;10818;50.830;6.524;2024-03-02T13:32:38;16.30;99.90
21318;DHT22;10818;50.830;6.524;2024-03-02T13:37:38;16.40;99.90
21318;DHT22;10818;50.830;6.524;2024-03-02T13:42:42;16.30;99.90
21318;DHT22;10818;50.830;6.524;2024-03-02T13:47:42;16.10;99.90
21318;DHT22;10818;50.830;6.524;2024-03-02T13:52:42;16.10;99.90
21318;DHT22;10818;50.830;6.524;2024-03-02T13:57:43;16.10;99.90
21318;DHT22;10818;50.830;6.524;2024-03-02T14:02:43;16.20;99.90
21318;DHT22;10818;50.830;6.524;2024-03-02T14:07:45;16.40;99.90
21318;DHT22;10818;50.830;6.524;2024-03-02T14:12:45;16.40;99.90
21318;DHT22;10818;50.830;6.524;2024-03-02T14:17:46;16.50;99.90
21318;DHT22;10818;50.830;6.524;2024-03-02T14:22:46;16.50;99.90
21318;DHT22;10818;50.830;6.524;2024-03-02T14:27:48;16.50;99.90
21318;DHT22;10818;50.830;6.524;2024-03-02T14:32:48;16.30;99.90
21318;DHT22;10818;50.830;6.524;2024-03-02T14:37:49;16.30;99.90
21318;DHT22;10818;50.830;6.524;2024-03-02T14:42:49;16.20;99.90
21318;DHT22;10818;50.830;6.524;2024-03-02T14:47:50;16.20;99.90
21318;DHT22;10818;50.830;6.524;2024-03-02T14:52:52;15.80;99.90
21318;DHT22;10818;50.830;6.524;2024-03-02T14:57:52;15.70;99.90
21318;DHT22;10818;50.830;6.524;2024-03-02T15:02:53;15.40;99.90
21318;DHT22;10818;50.830;6.524;2024-03-02T15:07:53;15.40;99.90
21318;DHT22;10818;50.830;6.524;2024-03-02T15:12:54;15.30;99.90
21318;DHT22;10818;50.830;6.524;2024-03-02T15:17:54;15.20;99.90
21318;DHT22;10818;50.830;6.524;2024-03-02T15:22:54;15.00;99.90
21318;DHT22;10818;50.830;6.524;2024-03-02T15:27:55;14.90;99.90
21318;DHT22;10818;50.830;6.524;2024-03-02T15:32:56;14.80;99.90
21318;DHT22;10818;50.830;6.524;2024-03-02T15:37:57;14.90;99.90
21318;DHT22;10818;50.830;6.524;2024-03-02T15:42:57;15.10;99.90
21318;DHT22;10818;50.830;6.524;2024-03-02T15:47:57;15.10;99.90
21318;DHT22;10818;50.830;6.524;2024-03-02T15:52:58;15.30;99.90
21318;DHT22;10818;50.830;6.524;2024-03-02T15:58:02;15.10;99.90
21318;DHT22;10818;50.830;6.524;2024-03-02T16:03:05;15.10;99.90
21318;DHT22;10818;50.830;6.524;2024-03-02T16:08:06;14.90;99.90
21318;DHT22;10818;50.830;6.524;2024-03-02T16:13:06;14.60;99.90
21318;DHT22;10818;50.830;6.524;2024-03-02T16:18:07;14.50;99.90
21318;DHT22;10818;50.830;6.524;2024-03-02T16:23:07;14.30;99.90
21318;DHT22;10818;50.830;6.524;2024-03-02T16:28:07;14.20;99.90
21318;DHT22;10818;50.830;6.524;2024-03-02T16:33:08;14.10;99.90
21318;DHT22;10818;50.830;6.524;2024-03-02T16:38:09;14.10;99.90
21318;DHT22;10818;50.830;6.524;2024-03-02T16:43:10;14.10;99.90
21318;DHT22;10818;50.830;6.524;2024-03-02T16:48:11;14.00;99.90
21318;DHT22;10818;50.830;6.524;2024-03-02T16:53:11;13.90;99.90
21318;DHT22;10818;50.830;6.524;2024-03-02T16:58:12;14.00;99.90
21318;DHT22;10818;50.830;6.524;2024-03-02T17:03:14;13.90;99.90
21318;DHT22;10818;50.830;6.524;2024-03-02T17:08:15;13.70;99.90
21318;DHT22;10818;50.830;6.524;2024-03-02T17:13:15;13.80;99.90
21318;DHT22;10818;50.830;6.524;2024-03-02T17:18:16;13.80;99.90
21318;DHT22;10818;50.830;6.524;2024-03-02T17:23:17;13.60;99.90
21318;DHT22;10818;50.830;6.524;2024-03-02T17:28:18;13.60;99.90
21318;DHT22;10818;50.830;6.524;2024-03-02T17:33:19;13.40;99.90
21318;DHT22;10818;50.830;6.524;2024-03-02T17:38:19;13.40;99.90
21318;DHT22;10818;50.830;6.524;2024-03-02T17:43:19;13.20;99.90
21318;DHT22;10818;50.830;6.524;2024-03-02T17:48:20;13.10;99.90
21318;DHT22;10818;50.830;6.524;2024-03-02T17:53:22;13.10;99.90
21318;DHT22;10818;50.830;6.524;2024-03-02T17:58:22;13.10;99.90
21318;DHT22;10818;50.830;6.524;2024-03-02T18:03:23;13.00;99.90
21318;DHT22;10818;50.830;6.524;2024-03-02T18:08:24;13.00;99.90
21318;DHT22;10818;50.830;6.524;2024-03-02T18:13:24;13.20;99.90
21318;DHT22;10818;50.830;6.524;2024-03-02T18:18:24;13.10;99.90
21318;DHT22;10818;50.830;6.524;2024-03-02T18:23:25;13.20;99.90
21318;DHT22;10818;50.830;6.524;2024-03-02T18:28:25;13.30;99.90
21318;DHT22;10818;50.830;6.524;2024-03-02T18:33:26;13.20;99.90
21318;DHT22;10818;50.830;6.524;2024-03-02T18:38:26;13.20;99.90
21318;DHT22;10818;50.830;6.524;2024-03-02T18:43:27;12.90;99.90
21318;DHT22;10818;50.830;6.524;2024-03-02T18:48:27;12.80;99.90
21318;DHT22;10818;50.830;6.524;2024-03-02T18:53:27;12.70;99.90
21318;DHT22;10818;50.830;6.524;2024-03-02T18:58:28;12.70;99.90
21318;DHT22;10818;50.830;6.524;2024-03-02T19:03:28;12.40;99.90
21318;DHT22;10818;50.830;6.524;2024-03-02T19:08:30;12.50;99.90
21318;DHT22;10818;50.830;6.524;2024-03-02T19:13:32;12.50;99.90
21318;DHT22;10818;50.830;6.524;2024-03-02T19:18:32;12.60;99.90
21318;DHT22;10818;50.830;6.524;2024-03-02T19:23:33;12.50;99.90
21318;DHT22;10818;50.830;6.524;2024-03-02T19:28:33;12.40;99.90
21318;DHT22;10818;50.830;6.524;2024-03-02T19:33:34;12.40;99.90
21318;DHT22;10818;50.830;6.524;2024-03-02T19:38:34;12.30;99.90
21318;DHT22;10818;50.830;6.524;2024-03-02T19:43:35;12.30;99.90
21318;DHT22;10818;50.830;6.524;2024-03-02T19:48:35;12.30;99.90
21318;DHT22;10818;50.830;6.524;2024-03-02T19:53:36;12.30;99.90
21318;DHT22;10818;50.830;6.524;2024-03-02T19:58:38;12.20;99.90
21318;DHT22;10818;50.830;6.524;2024-03-02T20:03:38;12.10;99.90
21318;DHT22;10818;50.830;6.524;2024-03-02T20:08:39;12.00;99.90
21318;DHT22;10818;50.830;6.524;2024-03-02T20:13:39;11.90;99.90
21318;DHT22;10818;50.830;6.524;2024-03-02T20:18:39;12.00;99.90
21318;DHT22;10818;50.830;6.524;2024-03-02T20:23:41;11.90;99.90
21318;DHT22;10818;50.830;6.524;2024-03-02T20:28:42;12.00;99.90
21318;DHT22;10818;50.830;6.524;2024-03-02T20:33:43;11.80;99.90
21318;DHT22;10818;50.830;6.524;2024-03-02T20:38:43;11.80;99.90
21318;DHT22;10818;50.830;6.524;2024-03-02T20:43:44;11.80;99.90
21318;DHT22;10818;50.830;6.524;2024-03-02T20:48:45;11.90;99.90
21318;DHT22;10818;50.830;6.524;2024-03-02T20:53:46;11.90;99.90
21318;DHT22;10818;50.830;6.524;2024-03-02T20:58:48;12.00;99.90
21318;DHT22;10818;50.830;6.524;2024-03-02T21:03:48;12.10;99.90
21318;DHT22;10818;50.830;6.524;2024-03-02T21:08:49;12.10;99.90
21318;DHT22;10818;50.830;6.524;2024-03-02T21:13:49;12.10;99.90
21318;DHT22;10818;50.830;6.524;2024-03-02T21:18:50;11.90;99.90
21318;DHT22;10818;50.830;6.524;2024-03-02T21:23:50;11.90;99.90
21318;DHT22;10818;50.830;6.524;2024-03-02T21:28:51;11.90;99.90
21318;DHT22;10818;50.830;6.524;2024-03-02T21:33:51;11.70;99.90
21318;DHT22;10818;50.830;6.524;2024-03-02T21:38:52;11.90;99.90
21318;DHT22;10818;50.830;6.524;2024-03-02T21:43:52;12.00;99.90
21318;DHT22;10818;50.830;6.524;2024-03-02T21:48:53;12.00;99.90
21318;DHT22;10818;50.830;6.524;2024-03-02T21:53:53;12.00;99.90
21318;DHT22;10818;50.830;6.524;2024-03-02T21:58:54;12.10;99.90
21318;DHT22;10818;50.830;6.524;2024-03-02T22:03:55;11.70;99.90
21318;DHT22;10818;50.830;6.524;2024-03-02T22:08:55;11.70;99.90
21318;DHT22;10818;50.830;6.524;2024-03-02T22:13:56;11.90;99.90
21318;DHT22;10818;50.830;6.524;2024-03-02T22:18:56;12.00;99.90
21318;DHT22;10818;50.830;6.524;2024-03-02T22:23:57;12.00;99.90
21318;DHT22;10818;50.830;6.524;2024-03-02T22:28:57;11.90;99.90
21318;DHT22;10818;50.830;6.524;2024-03-02T22:33:58;11.90;99.90
21318;DHT22;10818;50.830;6.524;2024-03-02T22:38:58;12.00;99.90
21318;DHT22;10818;50.830;6.524;2024-03-02T22:43:58;12.00;99.90
21318;DHT22;10818;50.830;6.524;2024-03-02T22:48:59;11.80;99.90
21318;DHT22;10818;50.830;6.524;2024-03-02T22:53:59;11.50;99.90
21318;DHT22;10818;50.830;6.524;2024-03-02T22:59:00;11.30;99.90
21318;DHT22;10818;50.830;6.524;2024-03-02T23:04:01;11.10;99.90
21318;DHT22;10818;50.830;6.524;2024-03-02T23:09:01;10.90;99.90
21318;DHT22;10818;50.830;6.524;2024-03-02T23:14:03;10.80;99.90
21318;DHT22;10818;50.830;6.524;2024-03-02T23:19:05;10.80;99.90
21318;DHT22;10818;50.830;6.524;2024-03-02T23:24:05;10.60;99.90
21318;DHT22;10818;50.830;6.524;2024-03-02T23:29:05;10.50;99.90
21318;DHT22;10818;50.830;6.524;2024-03-02T23:34:06;10.60;99.90
21318;DHT22;10818;50.830;6.524;2024-03-02T23:39:06;10.70;99.90
21318;DHT22;10818;50.830;6.524;2024-03-02T23:44:07;10.60;99.90
21318;DHT22;10818;50.830;6.524;2024-03-02T23:49:08;10.40;99.90
21318;DHT22;10818;50.830;6.524;2024-03-02T23:54:08;10.30;99.90
21318;DHT22;10818;50.830;6.524;2024-03-02T23:59:08;10.20;99.90
